Terminal Aerodrome Forecast
Issued by NWS Cleveland, OH

Home | Current Version | Previous Version | Graphics & Text | Print | Product List | Glossary On
Versions: 1 2 3 4 5 6 7 8 9 10 11 12 13 14 15 16
253
FTUS41 KCLE 081504 AAA
TAFTOL
TAF AMD
KTOL 081504Z 0815/0912 28005KT P6SM SCT050 OVC100
     FM082000 28008KT 5SM BR SCT025 OVC035
     FM090700 27008KT P6SM OVC025=

USA.gov is the U.S. government's official web portal to all federal, state and local government web resources and services.